Jesup, IA (50648)

10:26 AM CDT on July 23, 2017 (GMT -0500)
Tagtow Weather Station | | Change Station
Active Advisory: Flood Warning

Elev 879 ft 42.50 °N, 92.23 °W | Updated 4 minutes ago

Clear
Clear
80.1 °F
Feels Like 83 °F
N
3.0
Wind Variable Wind from ENE

Today
High -- | Low -- °F
--% Chance of Precip.
Yesterday
High -- | Low -- °F
Precip. -- in
Pressure 29.86 in
Visibility 10.0 miles
Clouds Clear
Heat Index 83 °F
Dew Point 69 °F
Humidity 70%
Rainfall 0.00 in
Snow Depth Not available.
5:51 AM 8:37 PM
New Moon, 0% visible
METAR KVTI 231515Z AUTO 27011G17KT 10SM CLR 29/21 A2986 RMK AO2 T02860211
Pressure 29.86 in
Visibility 10.0 miles
Clouds Clear
Heat Index 83 °F
Dew Point 69 °F
Humidity 70%
Rainfall 0.00 in
Snow Depth Not available.
5:51 AM 8:37 PM
New Moon, 0% visible
METAR KVTI 231515Z AUTO 27011G17KT 10SM CLR 29/21 A2986 RMK AO2 T02860211

Get Your Daily Forecast Email!

Thanks for signing up!

Be on the lookout for a verification email in your inbox.

You'll start receiving severe weather alerts in your inbox..

×

10-Day Weather Forecast

Almanac

Astronomy

Jul. 23, 2017 Rise Set
Actual Time
Civil Twilight
Nautical Twilight
Astronomical Twilight
Moon
Length of Visible Light
Length of Day
Tomorrow will be .
, % of the Moon is Illuminated

Today's Extremes

State Highs State Lows

Community

WunderPhotos

Category 6

Welcome to Category 6. This is the collective home for Weather Underground's featured writeups by Dr. Jeff Masters (right), Bob Henson (left), Chris Burt, and other regular contributors.

Nearby

Air Quality

  Air Quality AQ Index Pollutant
Not available.

Snow Depth

Station Depth Elevation

Earthquake Activity

City Distance Mag. Time & Date
Minimum magnitude displayed is 2.5.

Coastal Water Temperatures

Place Temperature

Stations

Nearby Weather Stations

Station Location Temp. Windchill Dew Point Humidity Wind Precip. Elev Updated Type
                   

Watches & Warnings

Flood Warning
Issued: 4:39 AM CDT Jul. 23, 2017 – National Weather Service

... Flood Warning now in effect until Wednesday morning...

The Flood Warning continues for
the wapsipinicon river at Independence.
* Until Wednesday morning.
* At 3:30 am Sunday the stage was 10.2 feet... and rising.
* Flood stage is 12.0 feet.
* No flooding is occurring and major flooding is forecast.
* Recent activity... the river continues to rise rapidly.
* Forecast... rise above flood stage this morning... and continue
rising to 18.0 feet Monday. Fall below flood stage Wednesday
morning.
* Impact... at 18.0 feet... water affects 1st street and reaches the
bottom of the Iowa Highway 150 bridge deck.


Lat... Lon 4219 9160 4252 9208 4261 9208 4226 9152